Time;durP1;ratioP1;P1;durP2;ratioP2;P2;SDS_P1;SDS_P2;PMS_P1;PMS_P2;Temp;Humidity;BMP_temperature;BMP_pressure;BME280_temperature;BME280_humidity;BME280_pressure;Samples;Min_cycle;Max_cycle;Signal;HPM_P1;HPM_P2
2021/03/24 00:02:58;;;;;;;51.90;41.57;;;5.20;99.90;;;;;;5090443;28;20507;-64
2021/03/24 00:05:29;;;;;;;50.90;39.83;;;5.20;99.90;;;;;;5090352;28;20800;-64
2021/03/24 00:07:54;;;;;;;48.07;41.30;;;5.20;99.90;;;;;;5090296;28;20373;-65
2021/03/24 00:10:23;;;;;;;53.30;42.00;;;5.10;99.90;;;;;;5082390;28;20492;-65
2021/03/24 00:12:49;;;;;;;49.80;40.17;;;5.10;99.90;;;;;;5090238;28;20152;-65
2021/03/24 00:15:15;;;;;;;48.97;40.60;;;5.10;99.90;;;;;;5090175;28;20473;-65
2021/03/24 00:17:40;;;;;;;45.40;39.03;;;5.10;99.90;;;;;;5090207;28;20569;-65
2021/03/24 00:20:08;;;;;;;49.03;42.20;;;5.10;99.90;;;;;;5090076;28;20385;-65
2021/03/24 00:22:34;;;;;;;49.27;39.27;;;5.10;99.90;;;;;;5090012;28;20191;-65
2021/03/24 00:25:00;;;;;;;50.93;40.03;;;5.10;99.90;;;;;;5090140;28;20382;-64
2021/03/24 00:27:25;;;;;;;47.87;39.90;;;5.10;99.90;;;;;;5089119;28;20577;-65
2021/03/24 00:29:51;;;;;;;50.40;40.80;;;5.10;99.90;;;;;;5089899;28;20160;-65
2021/03/24 00:32:16;;;;;;;47.77;37.57;;;5.00;99.90;;;;;;5089823;28;20236;-65
2021/03/24 00:34:43;;;;;;;48.30;39.40;;;5.00;99.90;;;;;;5089859;28;20164;-64
2021/03/24 00:37:09;;;;;;;49.23;39.80;;;5.00;99.90;;;;;;5072027;28;20628;-64
2021/03/24 00:39:35;;;;;;;46.77;39.43;;;5.00;99.90;;;;;;5089828;28;20405;-66
2021/03/24 00:42:00;;;;;;;50.93;40.53;;;5.00;99.90;;;;;;5089628;28;20595;-64
2021/03/24 00:44:26;;;;;;;56.83;42.60;;;5.00;99.90;;;;;;5088712;28;20254;-64
2021/03/24 00:46:51;;;;;;;53.10;40.67;;;5.00;99.90;;;;;;5089450;28;20230;-64
2021/03/24 00:49:17;;;;;;;45.87;37.37;;;5.00;99.90;;;;;;5089535;28;20159;-64
2021/03/24 00:51:42;;;;;;;51.23;41.67;;;5.00;99.90;;;;;;5089696;28;20160;-64
2021/03/24 00:54:08;;;;;;;48.10;40.20;;;5.00;99.90;;;;;;5089374;28;20188;-64
2021/03/24 00:56:34;;;;;;;49.50;41.20;;;4.90;99.90;;;;;;5089384;28;20156;-64
2021/03/24 00:58:59;;;;;;;51.90;41.20;;;5.00;99.90;;;;;;5089340;28;20152;-64
2021/03/24 01:01:25;;;;;;;49.50;41.73;;;5.00;99.90;;;;;;5088155;28;20256;-64
2021/03/24 01:03:50;;;;;;;50.30;40.00;;;5.00;99.90;;;;;;5089533;28;20254;-64
2021/03/24 01:06:16;;;;;;;47.07;41.10;;;5.00;99.90;;;;;;5089469;28;20159;-64
2021/03/24 01:08:41;;;;;;;48.00;39.67;;;5.00;99.90;;;;;;5084118;28;20544;-64
2021/03/24 01:11:07;;;;;;;49.33;39.07;;;5.00;99.90;;;;;;5068759;28;20164;-64
2021/03/24 01:13:33;;;;;;;49.53;40.40;;;5.00;99.90;;;;;;5060038;28;20297;-65
2021/03/24 01:15:58;;;;;;;52.70;42.20;;;5.00;99.90;;;;;;5055703;28;20490;-64
2021/03/24 01:18:25;;;;;;;51.23;40.70;;;4.90;99.90;;;;;;5056230;28;20185;-64
2021/03/24 01:20:52;;;;;;;46.37;39.27;;;4.90;99.90;;;;;;5055613;28;20172;-64
2021/03/24 01:23:18;;;;;;;55.70;42.20;;;4.90;99.90;;;;;;5055414;28;20449;-64
2021/03/24 01:25:44;;;;;;;51.33;40.70;;;4.90;99.90;;;;;;5055573;28;20403;-64
2021/03/24 01:28:19;;;;;;;46.20;38.57;;;4.90;99.90;;;;;;5055338;28;20170;-64
2021/03/24 01:30:45;;;;;;;50.50;39.83;;;4.90;99.90;;;;;;5055466;28;20399;-64
2021/03/24 01:33:11;;;;;;;47.00;40.70;;;4.90;99.90;;;;;;5055723;28;20453;-64
2021/03/24 01:35:39;;;;;;;55.73;38.47;;;4.90;99.90;;;;;;5037550;28;20407;-64
2021/03/24 01:38:04;;;;;;;52.10;41.57;;;4.90;99.90;;;;;;5055054;28;20815;-64
2021/03/24 01:40:34;;;;;;;47.63;38.10;;;4.80;99.90;;;;;;5055221;28;20611;-64
2021/03/24 01:43:04;;;;;;;47.43;39.13;;;4.80;99.90;;;;;;5053945;28;20157;-64
2021/03/24 01:48:12;;;;;;;46.90;38.27;;;4.80;99.90;;;;;;5131398;27;20515;-65
2021/03/24 01:50:39;;;;;;;46.13;37.73;;;4.80;99.90;;;;;;5126115;28;20446;-65
2021/03/24 01:53:05;;;;;;;47.37;38.83;;;4.80;99.90;;;;;;5110748;28;20828;-65
2021/03/24 01:55:31;;;;;;;47.30;38.13;;;4.80;99.90;;;;;;5110748;28;20480;-65
2021/03/24 01:57:58;;;;;;;49.40;38.17;;;4.80;99.90;;;;;;5110965;28;20561;-65
2021/03/24 02:02:59;;;;;;;47.63;38.43;;;4.80;99.90;;;;;;5090739;28;20564;-65
2021/03/24 02:05:25;;;;;;;45.63;34.20;;;4.70;99.90;;;;;;5090307;28;20829;-65
2021/03/24 02:08:01;;;;;;;47.33;37.90;;;4.70;99.90;;;;;;5084552;28;20171;-65
2021/03/24 02:10:34;;;;;;;40.83;36.40;;;4.70;99.90;;;;;;5089479;28;20167;-65
2021/03/24 02:13:23;;;;;;;52.80;37.90;;;4.60;99.90;;;;;;5090270;28;20400;-65
2021/03/24 02:16:02;;;;;;;47.77;35.70;;;4.60;99.90;;;;;;5089172;28;20382;-65
2021/03/24 02:18:32;;;;;;;48.13;37.37;;;4.60;99.90;;;;;;5090251;28;20390;-65
2021/03/24 02:21:03;;;;;;;48.00;37.97;;;4.60;99.90;;;;;;5090048;28;20441;-65
2021/03/24 02:23:42;;;;;;;44.23;37.10;;;4.60;99.90;;;;;;5090068;28;20401;-65
2021/03/24 02:28:47;;;;;;;49.03;36.80;;;4.60;99.90;;;;;;5131379;27;20565;-65
2021/03/24 02:31:15;;;;;;;47.60;39.33;;;4.60;99.90;;;;;;5131549;27;20868;-65
2021/03/24 02:33:42;;;;;;;42.90;35.77;;;4.60;99.90;;;;;;5131300;27;20371;-65
2021/03/24 02:36:12;;;;;;;47.97;37.67;;;4.60;99.90;;;;;;5131220;27;20379;-65
2021/03/24 02:38:40;;;;;;;42.20;35.67;;;4.50;99.90;;;;;;5130078;28;20388;-65
2021/03/24 02:41:07;;;;;;;45.10;36.10;;;4.50;99.90;;;;;;5129575;28;20428;-65
2021/03/24 02:43:34;;;;;;;47.10;36.00;;;4.50;99.90;;;;;;5110880;27;20404;-65
2021/03/24 02:46:03;;;;;;;51.00;36.80;;;4.50;99.90;;;;;;5109261;28;20428;-65
2021/03/24 02:48:32;;;;;;;45.33;35.77;;;4.50;99.90;;;;;;5110327;28;20445;-65
2021/03/24 02:51:00;;;;;;;42.03;34.87;;;4.50;99.90;;;;;;5110437;28;20410;-65
2021/03/24 02:53:28;;;;;;;40.63;36.17;;;4.50;99.90;;;;;;5110579;28;20434;-65
2021/03/24 02:55:58;;;;;;;45.40;36.03;;;4.40;99.90;;;;;;5110364;28;20405;-65
2021/03/24 02:58:24;;;;;;;44.60;38.00;;;4.40;99.90;;;;;;5109494;28;20413;-65
2021/03/24 03:00:49;;;;;;;44.13;36.50;;;4.40;99.90;;;;;;5110145;28;20400;-65
2021/03/24 03:03:25;;;;;;;44.07;37.10;;;4.40;99.90;;;;;;5110114;28;20396;-65
2021/03/24 03:05:55;;;;;;;42.80;35.60;;;4.40;99.90;;;;;;5110332;28;20163;-65
2021/03/24 03:08:34;;;;;;;50.23;36.77;;;4.30;99.90;;;;;;5109798;28;20455;-65
2021/03/24 03:13:49;;;;;;;45.90;37.90;;;4.30;99.90;;;;;;5110958;27;20502;-65
2021/03/24 03:19:20;;;;;;;45.07;35.67;;;4.20;99.90;;;;;;5131287;27;20910;-65
2021/03/24 03:21:51;;;;;;;47.27;36.83;;;4.20;99.90;;;;;;5130008;28;20399;-65
2021/03/24 03:24:17;;;;;;;44.10;33.53;;;4.20;99.90;;;;;;5131226;27;20475;-65
2021/03/24 03:26:44;;;;;;;42.90;33.47;;;4.10;99.90;;;;;;5131165;27;20392;-65
2021/03/24 03:29:15;;;;;;;49.60;35.53;;;4.10;99.90;;;;;;5129946;28;20806;-65
2021/03/24 03:31:43;;;;;;;46.13;36.40;;;4.10;99.90;;;;;;5130003;28;20395;-65
2021/03/24 03:34:11;;;;;;;44.57;33.83;;;4.10;99.90;;;;;;5113842;27;20459;-65
2021/03/24 03:36:41;;;;;;;44.80;36.13;;;4.10;99.90;;;;;;5110550;28;20393;-65
2021/03/24 03:39:12;;;;;;;42.53;35.00;;;4.10;99.90;;;;;;5109210;28;20440;-65
2021/03/24 03:41:38;;;;;;;40.67;32.70;;;4.10;99.90;;;;;;5109067;28;20452;-65
2021/03/24 03:44:06;;;;;;;44.33;37.07;;;4.10;99.90;;;;;;5110233;28;20393;-65
2021/03/24 03:46:38;;;;;;;45.07;36.80;;;4.10;99.90;;;;;;5110279;28;20435;-65
2021/03/24 03:49:04;;;;;;;46.67;33.80;;;4.10;99.90;;;;;;5108937;28;20397;-65
2021/03/24 03:52:10;;;;;;;42.87;33.30;;;4.10;99.90;;;;;;5111334;28;20412;-65
2021/03/24 03:54:43;;;;;;;42.67;32.87;;;4.00;99.90;;;;;;5109178;28;20481;-65
2021/03/24 04:02:47;;;;;;;45.77;35.03;;;4.00;99.90;;;;;;5070314;28;20872;-65
2021/03/24 04:05:20;;;;;;;44.50;33.60;;;3.90;99.90;;;;;;5070274;28;20385;-65
2021/03/24 04:07:51;;;;;;;41.93;33.27;;;3.90;99.90;;;;;;5062285;28;20409;-65
2021/03/24 04:10:18;;;;;;;44.10;36.27;;;3.90;99.90;;;;;;5070269;28;20414;-65
2021/03/24 04:12:44;;;;;;;46.00;34.70;;;3.90;99.90;;;;;;5070160;28;20385;-65
2021/03/24 04:15:15;;;;;;;46.77;34.50;;;3.90;99.90;;;;;;5069257;28;20879;-64
2021/03/24 04:17:49;;;;;;;47.63;35.53;;;3.90;99.90;;;;;;5069943;28;20386;-65
2021/03/24 04:20:17;;;;;;;43.57;35.17;;;3.90;99.90;;;;;;5069659;28;20412;-65
2021/03/24 04:22:45;;;;;;;46.43;36.53;;;3.90;99.90;;;;;;5068647;28;20423;-65
2021/03/24 04:25:17;;;;;;;46.00;33.63;;;3.90;99.90;;;;;;5068921;28;20413;-65
2021/03/24 04:27:46;;;;;;;43.90;31.93;;;3.90;99.90;;;;;;5070014;28;20513;-65
2021/03/24 04:30:15;;;;;;;43.13;33.10;;;3.90;99.90;;;;;;5068714;28;20469;-65
2021/03/24 04:32:41;;;;;;;42.57;33.93;;;3.90;99.90;;;;;;5069662;28;20485;-65
2021/03/24 04:35:08;;;;;;;43.47;32.70;;;3.90;99.90;;;;;;5069447;28;20499;-65
2021/03/24 04:37:41;;;;;;;41.90;33.90;;;3.90;99.90;;;;;;5069882;28;20182;-65
2021/03/24 04:40:14;;;;;;;40.37;33.00;;;3.90;99.90;;;;;;5069284;28;20426;-65
2021/03/24 04:42:49;;;;;;;43.90;34.70;;;3.90;99.90;;;;;;5069694;28;20391;-65
2021/03/24 04:48:01;;;;;;;50.63;35.37;;;3.80;99.90;;;;;;5131287;27;20515;-65
2021/03/24 04:50:32;;;;;;;50.83;34.63;;;3.80;99.90;;;;;;5131205;27;20440;-64
2021/03/24 04:53:01;;;;;;;45.70;36.30;;;3.80;99.90;;;;;;5130142;28;20407;-65
2021/03/24 04:55:27;;;;;;;43.00;33.80;;;3.80;99.90;;;;;;5131273;27;20387;-65
2021/03/24 04:57:56;;;;;;;40.57;32.33;;;3.80;99.90;;;;;;5125141;28;20497;-65
2021/03/24 05:00:43;;;;;;;39.97;32.33;;;3.80;99.90;;;;;;5110493;28;20446;-65
2021/03/24 05:03:13;;;;;;;47.70;32.93;;;3.80;99.90;;;;;;5109240;28;20830;-65
2021/03/24 05:05:46;;;;;;;38.17;32.63;;;3.80;99.90;;;;;;5110354;28;20384;-65
2021/03/24 05:11:32;;;;;;;44.47;31.77;;;3.80;99.90;;;;;;5090701;28;20529;-64
2021/03/24 05:14:22;;;;;;;45.27;34.90;;;3.80;99.90;;;;;;5103514;28;20393;-64
2021/03/24 05:16:50;;;;;;;44.80;32.47;;;3.80;99.90;;;;;;5069064;28;20471;-65
2021/03/24 05:19:23;;;;;;;45.47;34.60;;;3.80;99.90;;;;;;5070021;28;20402;-65
2021/03/24 05:21:55;;;;;;;45.70;31.80;;;3.80;99.90;;;;;;5069095;28;20397;-65
2021/03/24 05:24:27;;;;;;;45.40;33.30;;;3.80;99.90;;;;;;5070573;28;20402;-65
2021/03/24 05:27:00;;;;;;;48.17;33.47;;;3.80;99.90;;;;;;5069895;28;20519;-65
2021/03/24 05:29:30;;;;;;;43.60;33.30;;;3.80;99.90;;;;;;5069821;28;20575;-65
2021/03/24 05:31:56;;;;;;;42.20;33.20;;;3.80;99.90;;;;;;5070436;28;20414;-65
2021/03/24 05:34:27;;;;;;;45.07;32.67;;;3.70;99.90;;;;;;5069758;28;20398;-65
2021/03/24 05:36:53;;;;;;;43.50;33.00;;;3.80;99.90;;;;;;5068719;28;20390;-65
2021/03/24 05:39:26;;;;;;;40.50;33.80;;;3.80;99.90;;;;;;5070017;28;20872;-65
2021/03/24 05:42:32;;;;;;;44.27;32.43;;;3.80;99.90;;;;;;5068760;28;20910;-65
2021/03/24 05:50:48;;;;;;;43.40;32.80;;;3.80;99.90;;;;;;5094099;27;20510;-65
2021/03/24 05:53:44;;;;;;;46.03;33.33;;;3.80;99.90;;;;;;5089621;28;20491;-65
2021/03/24 06:04:33;;;;;;;47.00;33.13;;;3.80;99.90;;;;;;5131691;27;20515;-65
2021/03/24 06:10:17;;;;;;;39.70;32.67;;;4.00;99.90;;;;;;5111110;27;20512;-65
2021/03/24 06:21:56;;;;;;;44.17;33.07;;;4.20;99.90;;;;;;5070709;28;20507;-65
2021/03/24 06:27:43;;;;;;;45.27;34.17;;;4.30;99.90;;;;;;5131486;27;20515;-65
2021/03/24 06:30:34;;;;;;;46.97;35.80;;;4.30;99.90;;;;;;5131819;27;20479;-65
2021/03/24 06:33:17;;;;;;;44.40;33.90;;;4.40;99.90;;;;;;5130613;28;20383;-65
2021/03/24 06:36:23;;;;;;;45.97;36.27;;;4.50;99.90;;;;;;5131530;27;20394;-65
2021/03/24 06:39:16;;;;;;;46.53;34.80;;;4.60;99.90;;;;;;5130252;28;20466;-65
2021/03/24 06:45:05;;;;;;;47.93;34.80;;;4.70;99.90;;;;;;5131686;27;20519;-66
2021/03/24 06:47:40;;;;;;;42.03;34.57;;;4.80;99.90;;;;;;5131339;27;20420;-66
2021/03/24 06:50:45;;;;;;;43.83;34.20;;;4.90;99.90;;;;;;5131401;27;20382;-66
2021/03/24 06:53:42;;;;;;;40.13;31.97;;;5.00;99.90;;;;;;5119147;28;20384;-66
2021/03/24 06:56:48;;;;;;;41.00;33.77;;;5.10;99.90;;;;;;5130847;27;20407;-66
2021/03/24 06:59:41;;;;;;;41.20;31.97;;;5.20;99.90;;;;;;5109989;28;20392;-66
2021/03/24 07:02:35;;;;;;;38.73;31.90;;;5.30;99.90;;;;;;5109760;28;20484;-66
2021/03/24 07:05:30;;;;;;;45.83;30.13;;;5.40;99.90;;;;;;5109671;28;20392;-66
2021/03/24 07:14:10;;;;;;;38.43;30.57;;;5.70;99.90;;;;;;5127033;27;20564;-64
2021/03/24 07:19:46;;;;;;;36.93;28.30;;;5.90;99.90;;;;;;5090609;28;20516;-65
2021/03/24 07:27:55;;;;;;;36.97;29.47;;;6.20;99.90;;;;;;5131764;27;20864;-65
2021/03/24 07:49:58;;;;;;;42.53;27.90;;;7.30;99.90;;;;;;5111239;27;20508;-66
2021/03/24 07:58:33;;;;;;;37.67;28.87;;;7.40;99.90;;;;;;5110935;27;21034;-65
2021/03/24 08:04:16;;;;;;;33.20;25.70;;;7.90;99.90;;;;;;5110922;27;20509;-65
2021/03/24 08:09:54;;;;;;;32.77;24.30;;;8.10;99.90;;;;;;5131763;27;20504;-65
2021/03/24 08:15:43;;;;;;;34.53;26.37;;;8.30;99.90;;;;;;5131625;27;21101;-65
2021/03/24 08:21:25;;;;;;;31.50;26.80;;;8.40;99.90;;;;;;5090681;28;20514;-66
2021/03/24 08:26:56;;;;;;;32.57;26.37;;;8.80;99.90;;;;;;5111092;27;20989;-65
2021/03/24 08:32:39;;;;;;;35.07;24.80;;;8.90;99.90;;;;;;5131519;27;20598;-66
2021/03/24 08:38:14;;;;;;;35.20;25.17;;;9.00;99.90;;;;;;5111024;27;20505;-66
2021/03/24 08:46:22;;;;;;;38.20;26.60;;;9.50;99.90;;;;;;5131487;27;20520;-66
2021/03/24 08:48:52;;;;;;;37.20;28.20;;;9.60;99.90;;;;;;5131464;27;20395;-66
2021/03/24 08:54:18;;;;;;;30.60;24.60;;;9.80;99.90;;;;;;5131525;27;21053;-65
2021/03/24 08:56:50;;;;;;;31.10;25.20;;;10.10;99.90;;;;;;5118110;27;20408;-65
2021/03/24 09:02:32;;;;;;;32.10;24.80;;;10.20;99.90;;;;;;5131425;27;20533;-65
2021/03/24 09:05:21;;;;;;;32.70;24.37;;;10.40;99.90;;;;;;5130413;28;20403;-65
2021/03/24 09:13:24;;;;;;;28.73;20.90;;;10.60;99.90;;;;;;5122636;27;20566;-66
2021/03/24 09:18:33;;;;;;;29.40;22.70;;;11.00;99.90;;;;;;5131556;27;20503;-65
2021/03/24 09:21:22;;;;;;;35.50;23.67;;;11.90;99.90;;;;;;5131546;27;20380;-65
2021/03/24 09:24:08;;;;;;;29.87;22.93;;;12.60;99.90;;;;;;5130367;28;20387;-65
2021/03/24 09:32:16;;;;;;;30.67;23.03;;;13.30;99.90;;;;;;5110988;27;20514;-68
2021/03/24 09:35:09;;;;;;;35.93;23.90;;;14.90;94.00;;;;;;5110378;28;20896;-65
2021/03/24 09:37:41;;;;;;;34.80;22.73;;;15.30;91.20;;;;;;5110310;28;20418;-65
2021/03/24 09:40:11;;;;;;;33.43;23.60;;;15.70;90.00;;;;;;5109717;28;20407;-65
2021/03/24 09:42:47;;;;;;;33.70;22.93;;;16.00;87.00;;;;;;5109864;28;21104;-65
2021/03/24 09:48:10;;;;;;;34.20;24.80;;;16.30;80.20;;;;;;5096983;27;20513;-65
2021/03/24 09:53:40;;;;;;;38.73;26.50;;;16.20;77.20;;;;;;5131471;27;20515;-65
2021/03/24 09:56:13;;;;;;;39.07;26.83;;;15.90;76.80;;;;;;5131466;27;20379;-65
2021/03/24 10:07:20;;;;;;;50.23;25.70;;;14.80;79.50;;;;;;5090567;28;20508;-65
2021/03/24 10:10:15;;;;;;;38.03;24.60;;;14.60;83.10;;;;;;5075669;28;20388;-65
2021/03/24 10:18:13;;;;;;;38.63;26.40;;;14.40;84.90;;;;;;5110901;27;20981;-64
2021/03/24 10:20:51;;;;;;;40.63;26.00;;;13.90;88.40;;;;;;5105090;28;20405;-65
2021/03/24 10:23:23;;;;;;;42.63;29.63;;;13.70;88.60;;;;;;5090498;28;20420;-65
2021/03/24 10:25:54;;;;;;;48.13;29.07;;;13.60;88.20;;;;;;5090420;28;20400;-65
2021/03/24 10:28:34;;;;;;;42.53;28.47;;;13.50;90.30;;;;;;5090423;28;20794;-65
2021/03/24 10:31:10;;;;;;;47.17;29.73;;;13.40;91.70;;;;;;5089228;28;20386;-65
2021/03/24 10:33:40;;;;;;;43.40;28.77;;;13.30;90.60;;;;;;5090299;28;20389;-65
2021/03/24 10:36:18;;;;;;;45.40;29.77;;;13.30;90.80;;;;;;5090348;28;20437;-64
2021/03/24 10:41:56;;;;;;;48.77;32.47;;;13.10;91.80;;;;;;5090571;28;20916;-66
2021/03/24 10:44:39;;;;;;;40.77;29.30;;;13.10;91.70;;;;;;5089537;28;20781;-66
2021/03/24 10:47:15;;;;;;;45.00;29.63;;;13.00;92.70;;;;;;5090664;28;20423;-67
2021/03/24 10:50:12;;;;;;;42.10;30.10;;;12.90;93.70;;;;;;5089191;28;20389;-66
2021/03/24 10:52:41;;;;;;;46.37;30.30;;;12.90;94.70;;;;;;5089324;28;20392;-66
2021/03/24 10:55:17;;;;;;;51.30;31.60;;;12.80;94.90;;;;;;5082317;28;20464;-66
2021/03/24 11:00:48;;;;;;;46.40;31.70;;;12.80;94.80;;;;;;5131467;27;21033;-65
2021/03/24 11:08:57;;;;;;;49.70;32.37;;;12.80;93.70;;;;;;5131443;27;20507;-66
2021/03/24 11:11:29;;;;;;;52.30;33.37;;;12.70;94.30;;;;;;5128221;28;20396;-66
2021/03/24 11:16:48;;;;;;;48.67;30.63;;;12.90;93.50;;;;;;5131552;27;20522;-65
2021/03/24 11:19:22;;;;;;;49.57;32.97;;;12.90;93.20;;;;;;5131448;27;20747;-65
2021/03/24 11:22:10;;;;;;;43.10;30.13;;;13.00;92.30;;;;;;5131374;27;20388;-65
2021/03/24 11:24:57;;;;;;;47.57;30.37;;;13.00;93.50;;;;;;5130396;28;20387;-65
2021/03/24 11:43:15;;;;;;;49.20;29.47;;;13.00;91.40;;;;;;5110802;27;20517;-64
2021/03/24 11:45:41;;;;;;;50.27;28.60;;;12.80;94.40;;;;;;5104908;28;20466;-64
2021/03/24 11:51:04;;;;;;;38.40;24.80;;;12.80;92.90;;;;;;5131454;27;20565;-66
2021/03/24 11:59:26;;;;;;;46.87;29.73;;;12.80;94.00;;;;;;5131417;27;20503;-66
2021/03/24 12:02:31;;;;;;;38.30;26.40;;;12.80;92.30;;;;;;5130462;28;20436;-66
2021/03/24 12:10:38;;;;;;;41.23;26.47;;;12.80;92.40;;;;;;5131520;27;20504;-65
2021/03/24 12:13:26;;;;;;;34.70;25.37;;;12.90;92.00;;;;;;5131296;27;20387;-65
2021/03/24 12:16:05;;;;;;;39.60;24.13;;;12.90;93.10;;;;;;5131297;27;20408;-65
2021/03/24 12:23:53;;;;;;;36.03;24.50;;;12.90;92.80;;;;;;5131597;27;20514;-65
2021/03/24 12:26:24;;;;;;;36.10;23.83;;;12.80;93.50;;;;;;5130490;28;20415;-65
2021/03/24 12:28:51;;;;;;;43.17;26.13;;;12.80;92.90;;;;;;5131560;27;20380;-65
2021/03/24 12:31:19;;;;;;;40.30;25.73;;;12.90;93.10;;;;;;5131311;27;20752;-65
2021/03/24 12:33:53;;;;;;;32.80;22.87;;;12.90;94.60;;;;;;5131249;27;20392;-65
2021/03/24 12:36:23;;;;;;;40.97;24.93;;;12.80;95.40;;;;;;5128811;28;20390;-65
2021/03/24 12:44:20;;;;;;;34.53;22.80;;;12.80;94.60;;;;;;5131565;27;20515;-65
2021/03/24 12:49:28;;;;;;;32.60;23.17;;;12.50;97.30;;;;;;5131481;27;20879;-65
2021/03/24 12:52:33;;;;;;;36.33;22.83;;;12.40;96.90;;;;;;5131635;27;20776;-65
2021/03/24 12:54:59;;;;;;;41.03;24.80;;;12.40;98.30;;;;;;5114838;28;20914;-65
2021/03/24 13:06:09;;;;;;;41.90;25.90;;;12.70;93.90;;;;;;5110898;27;20861;-66
2021/03/24 13:09:14;;;;;;;35.70;25.10;;;12.80;95.80;;;;;;5110898;28;20431;-66
2021/03/24 13:12:05;;;;;;;36.10;23.63;;;12.80;94.20;;;;;;5095501;28;20416;-66
2021/03/24 13:14:48;;;;;;;31.10;20.60;;;12.90;94.40;;;;;;5089441;28;20393;-66
2021/03/24 13:20:30;;;;;;;34.73;23.47;;;12.80;93.40;;;;;;5131532;27;20506;-66
2021/03/24 13:25:49;;;;;;;36.67;22.57;;;12.70;93.70;;;;;;5090720;27;20538;-67
2021/03/24 13:28:41;;;;;;;29.90;22.50;;;12.90;92.50;;;;;;5081307;28;20402;-66
2021/03/24 13:31:17;;;;;;;38.10;25.07;;;13.00;93.70;;;;;;5069225;28;20432;-65
2021/03/24 13:36:48;;;;;;;35.40;24.20;;;12.90;93.80;;;;;;5090617;28;20564;-65
2021/03/24 13:39:22;;;;;;;34.83;22.10;;;12.80;93.60;;;;;;5089537;28;20397;-65
2021/03/24 13:41:51;;;;;;;34.70;22.43;;;13.00;93.00;;;;;;5106861;28;20740;-65
2021/03/24 13:46:57;;;;;;;41.37;25.00;;;13.10;92.30;;;;;;5131369;27;20520;-65
2021/03/24 13:49:42;;;;;;;36.10;24.13;;;13.10;92.30;;;;;;5130151;28;20402;-65
2021/03/24 14:00:47;;;;;;;40.80;23.27;;;12.80;97.30;;;;;;5131552;27;20515;-65
2021/03/24 14:03:37;;;;;;;28.17;18.97;;;12.80;95.20;;;;;;5113769;27;20812;-65
2021/03/24 14:06:28;;;;;;;31.50;20.87;;;12.90;95.20;;;;;;5118041;28;20400;-65
2021/03/24 14:12:10;;;;;;;30.73;21.10;;;12.90;95.80;;;;;;5131359;27;20519;-65
2021/03/24 14:20:38;;;;;;;37.43;21.33;;;12.70;96.70;;;;;;5115143;27;20509;-66
2021/03/24 14:23:33;;;;;;;31.67;21.00;;;12.60;96.20;;;;;;5109913;28;20384;-66
2021/03/24 14:26:09;;;;;;;32.17;19.67;;;12.60;95.50;;;;;;5110020;28;20911;-66
2021/03/24 14:29:06;;;;;;;32.93;20.50;;;12.60;95.70;;;;;;5109655;28;20396;-66
2021/03/24 14:31:37;;;;;;;31.23;19.77;;;12.60;94.50;;;;;;5109937;28;20731;-66
2021/03/24 14:34:26;;;;;;;32.73;19.90;;;12.60;96.60;;;;;;5110858;28;20388;-66
2021/03/24 14:36:53;;;;;;;23.43;15.23;;;12.50;97.40;;;;;;5109701;28;20414;-66
2021/03/24 14:45:23;;;;;;;29.37;18.53;;;12.60;95.20;;;;;;5131594;27;20496;-65
2021/03/24 14:48:13;;;;;;;31.50;18.80;;;12.60;94.50;;;;;;5110132;28;20432;-65
2021/03/24 14:58:57;;;;;;;29.90;18.53;;;12.40;97.10;;;;;;5131718;27;20565;-65
2021/03/24 15:07:29;;;;;;;28.27;16.17;;;12.30;98.40;;;;;;5110835;27;20563;-65
2021/03/24 15:10:31;;;;;;;25.20;16.70;;;12.30;98.60;;;;;;5101725;28;20416;-65
2021/03/24 15:12:59;;;;;;;24.00;16.70;;;12.30;97.90;;;;;;5089620;28;20468;-65
2021/03/24 15:15:56;;;;;;;25.23;15.40;;;12.30;99.20;;;;;;5090552;28;20393;-65
2021/03/24 15:29:37;;;;;;;22.03;14.90;;;12.50;97.50;;;;;;5131572;27;20516;-65
2021/03/24 15:32:12;;;;;;;21.40;14.50;;;12.60;97.70;;;;;;5131362;27;20399;-65
2021/03/24 15:35:17;;;;;;;19.50;15.10;;;12.60;95.10;;;;;;5130400;27;20747;-65
2021/03/24 15:40:43;;;;;;;24.50;13.77;;;12.80;95.00;;;;;;5131713;27;20500;-64
2021/03/24 15:46:13;;;;;;;21.90;15.20;;;12.60;98.90;;;;;;5131599;27;20515;-65
2021/03/24 15:48:52;;;;;;;21.17;15.23;;;12.60;98.60;;;;;;5131766;27;20919;-65
2021/03/24 15:51:24;;;;;;;23.80;14.17;;;12.50;98.60;;;;;;5130343;27;20430;-65
2021/03/24 15:53:54;;;;;;;21.10;13.50;;;12.50;99.20;;;;;;5131243;27;20912;-65
2021/03/24 15:56:57;;;;;;;20.53;13.90;;;12.40;99.70;;;;;;5131772;27;20424;-65
2021/03/24 16:00:03;;;;;;;22.70;13.60;;;12.30;99.90;;;;;;5130610;28;20880;-65
2021/03/24 16:02:57;;;;;;;18.90;14.40;;;12.30;99.90;;;;;;5098855;28;20443;-65
2021/03/24 16:10:49;;;;;;;19.97;13.07;;;12.30;99.90;;;;;;5110925;27;20505;-65
2021/03/24 16:21:47;;;;;;;21.97;15.90;;;12.10;99.90;;;;;;5131731;27;20496;-65
2021/03/24 16:33:12;;;;;;;26.60;15.47;;;12.00;99.90;;;;;;5131332;27;20500;-66
2021/03/24 16:36:09;;;;;;;25.10;15.77;;;12.00;99.90;;;;;;5118034;28;20411;-66
2021/03/24 16:50:27;;;;;;;24.33;17.30;;;12.00;99.90;;;;;;5131718;27;20515;-64
2021/03/24 16:58:33;;;;;;;24.00;16.63;;;11.80;99.90;;;;;;5131625;27;20508;-65
2021/03/24 17:01:26;;;;;;;29.33;17.50;;;11.80;99.90;;;;;;5130850;28;20827;-65
2021/03/24 17:06:45;;;;;;;26.90;16.77;;;11.80;99.90;;;;;;5110863;27;20517;-65
2021/03/24 17:12:05;;;;;;;30.33;18.43;;;11.60;99.90;;;;;;5131380;27;20511;-65
2021/03/24 17:17:48;;;;;;;29.87;15.90;;;11.60;99.90;;;;;;5131604;27;20576;-65
2021/03/24 17:20:21;;;;;;;22.97;16.90;;;11.40;99.90;;;;;;5130296;28;20491;-65
2021/03/24 17:23:11;;;;;;;27.17;17.30;;;11.40;99.90;;;;;;5131341;27;20400;-65
2021/03/24 17:25:41;;;;;;;28.10;17.70;;;11.30;99.90;;;;;;5125961;28;20423;-65
2021/03/24 17:28:21;;;;;;;29.53;18.40;;;11.30;99.90;;;;;;5111055;28;20790;-66
2021/03/24 17:31:19;;;;;;;26.63;15.87;;;11.20;99.90;;;;;;5109535;28;20478;-66
2021/03/24 17:33:57;;;;;;;23.03;15.77;;;11.10;99.90;;;;;;5109548;28;20391;-65
2021/03/24 17:39:21;;;;;;;22.10;16.60;;;11.10;99.90;;;;;;5111063;27;20557;-65
2021/03/24 17:41:58;;;;;;;26.30;18.13;;;10.90;99.90;;;;;;5110947;28;20937;-66
2021/03/24 17:44:31;;;;;;;26.07;17.10;;;10.80;99.90;;;;;;5091881;28;20451;-65
2021/03/24 17:47:02;;;;;;;30.97;19.30;;;10.80;99.90;;;;;;5090392;28;20465;-65
2021/03/24 17:55:07;;;;;;;29.27;19.57;;;10.80;99.90;;;;;;5090650;28;21101;-65
2021/03/24 17:57:45;;;;;;;28.53;18.67;;;10.60;99.90;;;;;;5089737;28;20962;-66
2021/03/24 18:00:35;;;;;;;32.67;18.87;;;10.60;99.90;;;;;;5081730;28;20500;-66
2021/03/24 18:03:17;;;;;;;29.57;18.77;;;10.50;99.90;;;;;;5070458;28;20792;-66
2021/03/24 18:08:30;;;;;;;25.97;19.00;;;10.50;99.90;;;;;;5131697;27;20927;-65
2021/03/24 18:10:59;;;;;;;26.10;18.90;;;10.30;99.90;;;;;;5132192;27;20411;-65
2021/03/24 18:13:28;;;;;;;25.30;16.70;;;10.30;99.90;;;;;;5131443;27;20436;-65
2021/03/24 18:15:53;;;;;;;25.73;17.07;;;10.30;99.90;;;;;;5131416;27;20376;-64
2021/03/24 18:18:22;;;;;;;26.10;19.60;;;10.20;99.90;;;;;;5111138;28;20448;-65
2021/03/24 18:23:28;;;;;;;25.10;16.63;;;10.20;99.90;;;;;;5131662;27;20519;-65
2021/03/24 18:28:44;;;;;;;28.00;19.90;;;10.00;99.90;;;;;;5090750;28;20573;-64
2021/03/24 18:31:33;;;;;;;29.23;19.23;;;10.00;99.90;;;;;;5090605;28;20475;-65
2021/03/24 18:34:10;;;;;;;28.60;18.97;;;9.90;99.90;;;;;;5066627;28;21101;-65
2021/03/24 18:36:37;;;;;;;28.87;19.47;;;9.80;99.90;;;;;;5070424;28;20421;-64
2021/03/24 18:39:12;;;;;;;28.87;19.40;;;9.80;99.90;;;;;;5070472;28;20397;-65
2021/03/24 18:41:38;;;;;;;27.33;20.23;;;9.70;99.90;;;;;;5070333;28;20418;-65
2021/03/24 18:44:07;;;;;;;31.23;20.37;;;9.70;99.90;;;;;;5070267;28;20920;-65
2021/03/24 18:46:41;;;;;;;32.67;21.73;;;9.70;99.90;;;;;;5060353;28;20450;-65
2021/03/24 18:49:11;;;;;;;30.77;20.87;;;9.60;99.90;;;;;;5070183;28;20389;-65
2021/03/24 18:51:42;;;;;;;35.80;20.83;;;9.60;99.90;;;;;;5070732;28;20406;-65
2021/03/24 18:56:47;;;;;;;27.23;19.40;;;9.50;99.90;;;;;;5110860;27;20516;-67
2021/03/24 19:01:58;;;;;;;27.60;20.60;;;9.40;99.90;;;;;;5131649;27;20569;-64
2021/03/24 19:07:10;;;;;;;27.80;19.77;;;9.40;99.90;;;;;;5131608;27;20556;-65
2021/03/24 19:18:14;;;;;;;26.50;20.87;;;9.30;99.90;;;;;;5131692;27;20501;-65
2021/03/24 19:20:40;;;;;;;31.17;21.73;;;9.30;99.90;;;;;;5131975;27;20391;-66
2021/03/24 19:25:45;;;;;;;28.50;19.97;;;9.20;99.90;;;;;;5097560;27;20566;-64
2021/03/24 19:31:06;;;;;;;26.93;20.63;;;9.20;99.90;;;;;;5111258;27;20509;-65
2021/03/24 19:33:52;;;;;;;36.53;20.43;;;9.20;99.90;;;;;;5109683;28;20403;-65
2021/03/24 19:36:27;;;;;;;28.20;19.97;;;9.10;99.90;;;;;;5110316;28;20892;-65